.
WxDataArchive / Data Records for 2013-04-28
2013-04-27 April 2013 2013-04-29

Data Records for Sunday, 28 April 2013

Time	Temp	Chill	HIndex	Humid	Dewpt	 Wind 	HiWind	WindDir	Rain 	Barom 
-----	----	-----	------	-----	-----	------	------	-------	-----	----- 
00:00	58.6	58.6	58.6	61	45.2	0	2	135	0.00	30.038 
00:05	58.6	58.6	58.6	61	45.2	0	2	135	0.00	30.038 
00:10	58.4	58.4	58.4	62	45.4	0	2	135	0.00	30.038 
00:15	58.4	58.4	58.4	62	45.4	0	2	135	0.00	30.038 
00:20	58.3	58.3	58.3	63	45.8	0	1	135	0.00	30.038 
00:25	58.1	58.1	58.1	63	45.6	0	0	---	0.00	30.038 
00:30	58.0	58.0	58.0	63	45.5	0	1	135	0.00	30.035 
00:35	57.8	57.8	57.8	64	45.7	0	1	135	0.00	30.035 
00:40	57.6	57.6	57.6	64	45.5	0	1	135	0.00	30.035 
00:45	57.5	57.5	57.5	65	45.8	0	1	135	0.00	30.031 
00:50	57.5	57.5	57.5	65	45.8	0	1	135	0.00	30.031 
00:55	57.5	57.5	57.5	65	45.8	0	2	135	0.00	30.031 
01:00	57.5	57.5	57.5	65	45.8	0	1	135	0.00	30.022 
01:05	57.5	57.5	57.5	66	46.2	0	1	135	0.00	30.022 
01:10	57.5	57.5	57.5	66	46.2	0	2	135	0.00	30.022 
01:15	57.5	57.5	57.5	66	46.2	1	3	90	0.00	30.016 
01:20	57.3	57.3	57.3	67	46.4	1	2	90	0.00	30.016 
01:25	57.2	57.2	57.2	68	46.7	1	2	90	0.00	30.016 
01:30	56.9	56.9	56.9	68	46.4	1	2	90	0.00	30.004 
01:35	56.7	56.7	56.7	69	46.6	1	2	90	0.00	30.004 
01:40	56.5	56.5	56.5	69	46.5	0	3	90	0.00	30.004 
01:45	56.3	56.3	56.3	70	46.6	0	2	90	0.00	30.003 
01:50	56.2	56.2	56.2	71	46.9	0	2	90	0.00	30.003 
01:55	56.0	56.0	56.0	72	47.1	0	1	90	0.00	30.003 
02:00	56.0	56.0	56.0	72	47.1	0	0	---	0.00	29.997 
02:05	55.9	55.9	55.9	73	47.4	0	0	---	0.00	29.997 
02:10	55.9	55.9	55.9	75	48.1	0	2	90	0.00	29.997 
02:15	55.7	55.7	55.7	75	47.9	0	2	90	0.00	29.989 
02:20	55.7	55.7	55.7	75	47.9	1	2	90	0.00	29.989 
02:25	55.7	55.7	55.7	75	47.9	1	3	90	0.00	29.989 
02:30	55.7	55.7	55.7	76	48.3	0	1	90	0.00	29.982 
02:35	55.7	55.7	55.7	76	48.3	0	2	90	0.00	29.982 
02:40	55.6	55.6	55.6	76	48.2	0	2	90	0.00	29.982 
02:45	55.6	55.6	55.6	76	48.2	0	2	90	0.00	29.972 
02:50	55.6	55.6	55.6	76	48.2	0	2	90	0.00	29.972 
02:55	55.6	55.6	55.6	75	47.8	1	3	90	0.00	29.972 
03:00	55.4	55.4	55.4	75	47.6	1	3	90	0.00	29.967 
03:05	55.4	55.4	55.4	76	48.0	1	4	90	0.00	29.967 
03:10	55.3	55.3	55.3	77	48.2	0	3	90	0.00	29.967 
03:15	55.1	55.1	55.1	77	48.0	1	3	90	0.00	29.960 
03:20	55.0	55.0	55.0	77	47.9	1	5	90	0.00	29.960 
03:25	54.8	54.8	54.8	77	47.7	2	5	90	0.00	29.960 
03:30	54.8	54.8	54.8	77	47.7	1	4	68	0.00	29.952 
03:35	54.7	54.7	54.7	77	47.6	1	4	68	0.00	29.952 
03:40	54.5	54.5	54.5	78	47.8	2	3	90	0.00	29.952 
03:45	54.5	54.5	54.5	78	47.8	1	3	90	0.00	29.942 
03:50	54.4	54.4	54.4	78	47.7	2	5	112	0.00	29.942 
03:55	54.2	54.2	54.2	78	47.5	1	4	112	0.00	29.942 
04:00	54.1	54.1	54.1	79	47.7	1	4	112	0.00	29.942 
04:05	54.1	54.1	54.1	79	47.7	1	5	112	0.00	29.942 
04:10	53.9	53.9	53.9	80	47.9	1	4	112	0.00	29.942 
04:15	53.8	53.8	53.8	82	48.4	1	4	112	0.00	29.936 
04:20	53.5	53.5	53.5	82	48.1	2	4	112	0.00	29.936 
04:25	53.3	53.3	53.3	83	48.3	1	3	112	0.00	29.936 
04:30	53.2	53.2	53.2	83	48.2	1	4	112	0.00	29.933 
04:35	53.2	53.2	53.2	84	48.5	1	3	112	0.00	29.933 
04:40	53.2	53.2	53.2	84	48.5	1	3	90	0.00	29.933 
04:45	53.1	53.1	53.1	84	48.4	2	4	90	0.00	29.929 
04:50	52.9	52.9	52.9	85	48.5	0	1	90	0.01	29.929 
04:55	52.8	52.8	52.8	85	48.4	0	3	90	0.00	29.929 
05:00	52.6	52.6	52.6	86	48.5	0	3	90	0.00	29.926 
05:05	52.5	52.5	52.5	87	48.7	1	3	90	0.00	29.926 
05:10	52.3	52.3	52.3	87	48.5	1	4	112	0.01	29.926 
05:15	52.2	52.2	52.2	88	48.8	1	3	112	0.00	29.924 
05:20	52.0	52.0	52.0	88	48.6	1	2	112	0.00	29.924 
05:25	51.9	51.9	51.9	89	48.8	1	3	112	0.01	29.924 
05:30	51.7	51.7	51.7	89	48.6	1	3	68	0.00	29.915 
05:35	51.7	51.7	51.7	89	48.6	1	3	68	0.00	29.915 
05:40	51.7	51.7	51.7	90	48.9	1	2	68	0.00	29.915 
05:45	51.7	51.7	51.7	90	48.9	1	3	112	0.00	29.911 
05:50	51.7	51.7	51.7	90	48.9	2	4	112	0.01	29.911 
05:55	51.7	51.7	51.7	90	48.9	0	3	112	0.00	29.911 
06:00	51.7	51.7	51.7	90	48.9	1	3	112	0.00	29.909 
06:05	51.7	51.7	51.7	91	49.2	1	3	112	0.00	29.909 
06:10	51.6	51.6	51.6	91	49.1	0	2	112	0.00	29.909 
06:15	51.6	51.6	51.6	91	49.1	1	3	112	0.00	29.912 
06:20	51.6	51.6	51.6	91	49.1	1	3	112	0.00	29.912 
06:25	51.6	51.6	51.6	91	49.1	1	3	112	0.01	29.912 
06:30	51.6	51.6	51.6	92	49.4	0	3	112	0.01	29.912 
06:35	51.6	51.6	51.6	92	49.4	1	3	112	0.00	29.912 
06:40	51.6	51.6	51.6	92	49.4	1	2	112	0.01	29.912 
06:45	51.4	51.4	51.4	92	49.2	1	2	112	0.01	29.911 
06:50	51.4	51.4	51.4	92	49.2	1	3	112	0.00	29.911 
06:55	51.4	51.4	51.4	92	49.2	1	3	112	0.01	29.911 
07:00	51.4	51.4	51.4	93	49.4	1	4	112	0.00	29.911 
07:05	51.4	51.4	51.4	93	49.4	2	3	112	0.01	29.911 
07:10	51.4	51.4	51.4	93	49.4	1	4	112	0.00	29.911 
07:15	51.4	51.4	51.4	93	49.4	1	4	112	0.01	29.904 
07:20	51.4	51.4	51.4	93	49.4	1	4	112	0.00	29.904 
07:25	51.4	51.4	51.4	94	49.7	1	4	90	0.01	29.904 
07:30	51.4	51.4	51.4	94	49.7	1	4	90	0.00	29.913 
07:35	51.6	51.6	51.6	94	49.9	1	3	90	0.01	29.913 
07:40	51.6	51.6	51.6	94	49.9	1	3	90	0.00	29.913 
07:45	51.6	51.6	51.6	94	49.9	1	2	90	0.01	29.909 
07:50	51.6	51.6	51.6	94	49.9	1	4	90	0.00	29.909 
07:55	51.7	51.7	51.7	95	50.3	1	3	90	0.01	29.909 
08:00	51.7	51.7	51.7	95	50.3	2	4	90	0.00	29.906 
08:05	51.9	51.9	51.9	95	50.5	1	2	90	0.01	29.906 
08:10	51.9	51.9	51.9	95	50.5	1	3	90	0.00	29.906 
08:15	52.0	52.0	52.0	95	50.6	3	5	90	0.01	29.903 
08:20	52.2	52.2	52.2	95	50.8	1	6	90	0.00	29.903 
08:25	52.2	52.2	52.2	95	50.8	2	5	90	0.01	29.903 
08:30	52.2	52.2	52.2	95	50.8	2	5	90	0.00	29.901 
08:35	52.3	52.3	52.3	95	50.9	2	4	90	0.01	29.901 
08:40	52.3	52.3	52.3	95	50.9	2	4	112	0.00	29.901 
08:45	52.3	52.3	52.3	96	51.2	2	5	112	0.01	29.899 
08:50	52.5	52.5	52.5	96	51.4	1	4	90	0.00	29.899 
08:55	52.5	52.5	52.5	96	51.4	3	4	90	0.00	29.899 
09:00	52.5	52.5	52.5	96	51.4	1	4	90	0.01	29.897 
09:05	52.6	52.6	52.6	96	51.5	1	4	112	0.00	29.897 
09:10	52.6	52.6	52.6	96	51.5	2	4	112	0.01	29.897 
09:15	52.8	52.8	52.8	96	51.7	1	3	90	0.00	29.889 
09:20	52.8	52.8	52.8	96	51.7	2	4	90	0.00	29.889 
09:25	52.8	52.8	52.8	96	51.7	2	4	112	0.01	29.889 
09:30	52.8	52.8	52.8	96	51.7	2	5	90	0.00	29.885 
09:35	52.9	52.9	52.9	96	51.8	2	3	112	0.00	29.885 
09:40	52.9	52.9	52.9	96	51.8	2	5	112	0.01	29.885 
09:45	53.1	53.1	53.1	96	52.0	2	4	112	0.00	29.882 
09:50	53.1	53.1	53.1	96	52.0	2	3	90	0.00	29.882 
09:55	53.2	53.2	53.2	96	52.1	1	3	90	0.00	29.882 
10:00	53.3	53.3	53.3	96	52.2	1	4	90	0.01	29.879 
10:05	53.5	53.5	53.5	96	52.4	2	4	90	0.00	29.879 
10:10	53.6	53.6	53.6	96	52.5	1	2	90	0.00	29.879 
10:15	53.8	53.8	53.8	96	52.7	1	3	90	0.00	29.874 
10:20	53.8	53.8	53.8	96	52.7	1	3	90	0.00	29.874 
10:25	53.9	53.9	53.9	96	52.8	2	4	90	0.00	29.874 
10:30	54.1	54.1	54.1	96	53.0	1	2	90	0.01	29.868 
10:35	54.1	54.1	54.1	96	53.0	1	3	90	0.00	29.868 
10:40	54.2	54.2	54.2	96	53.1	0	2	90	0.00	29.868 
10:45	54.4	54.4	54.4	96	53.3	0	2	90	0.00	29.867 
10:50	54.5	54.5	54.5	96	53.4	1	3	90	0.01	29.867 
10:55	54.5	54.5	54.5	96	53.4	1	4	90	0.00	29.867 
11:00	54.7	54.7	54.7	96	53.6	0	2	90	0.00	29.865 
11:05	54.8	54.8	54.8	96	53.7	1	4	90	0.00	29.865 
11:10	55.0	55.0	55.0	96	53.9	1	2	90	0.00	29.865 
11:15	55.1	55.1	55.1	96	54.0	1	3	90	0.01	29.862 
11:20	55.3	55.3	55.3	96	54.2	0	2	90	0.00	29.862 
11:25	55.4	55.4	55.4	96	54.3	1	4	90	0.00	29.862 
11:30	55.7	55.7	55.7	96	54.6	0	2	90	0.00	29.858 
11:35	55.9	55.9	55.9	96	54.8	1	3	90	0.00	29.858 
11:40	56.0	56.0	56.0	96	54.9	1	3	90	0.01	29.858 
11:45	56.0	56.0	56.0	96	54.9	1	3	180	0.00	29.855 
11:50	56.2	56.2	56.2	96	55.1	0	2	180	0.00	29.855 
11:55	56.3	56.3	56.3	96	55.2	0	3	112	0.00	29.855 
12:00	56.3	56.3	56.3	96	55.2	1	3	112	0.00	29.854 
12:05	56.3	56.3	56.3	96	55.2	1	3	112	0.00	29.854 
12:10	56.5	56.5	56.5	96	55.4	0	2	112	0.01	29.854 
12:15	56.6	56.6	56.6	96	55.5	1	3	135	0.00	29.852 
12:20	56.6	56.6	56.6	96	55.5	0	3	135	0.00	29.852 
12:25	56.6	56.6	56.6	96	55.5	1	3	135	0.00	29.852 
12:30	56.6	56.6	56.6	96	55.5	0	2	135	0.00	29.852 
12:35	56.6	56.6	56.6	96	55.5	0	2	135	0.01	29.852 
12:40	56.7	56.7	56.7	96	55.6	0	1	135	0.00	29.852 
12:45	56.7	56.7	56.7	96	55.6	0	0	---	0.00	29.851 
12:50	56.7	56.7	56.7	96	55.6	0	1	135	0.00	29.851 
12:55	56.7	56.7	56.7	96	55.6	0	3	135	0.00	29.851 
13:00	56.9	56.9	56.9	96	55.8	0	1	135	0.00	29.846 
13:05	57.0	57.0	57.0	96	55.9	0	2	135	0.01	29.846 
13:10	57.0	57.0	57.0	96	55.9	0	2	135	0.00	29.846 
13:15	57.2	57.2	57.2	96	56.1	1	3	135	0.00	29.843 
13:20	57.2	57.2	57.2	96	56.1	1	4	112	0.00	29.843 
13:25	57.2	57.2	57.2	96	56.1	1	3	135	0.00	29.843 
13:30	57.2	57.2	57.2	96	56.1	1	4	135	0.00	29.839 
13:35	57.3	57.3	57.3	96	56.2	1	3	135	0.00	29.839 
13:40	57.6	57.6	57.6	96	56.5	1	3	135	0.01	29.839 
13:45	57.8	57.8	57.8	96	56.7	1	4	112	0.00	29.832 
13:50	58.0	58.0	58.0	96	56.9	1	3	112	0.00	29.832 
13:55	58.1	58.1	58.1	96	57.0	0	3	112	0.00	29.832 
14:00	58.3	58.3	58.3	96	57.2	1	4	112	0.00	29.828 
14:05	58.1	58.1	58.1	96	57.0	1	4	112	0.00	29.828 
14:10	58.3	58.3	58.3	96	57.2	0	1	112	0.00	29.828 
14:15	58.4	58.4	58.4	96	57.3	0	1	112	0.01	29.826 
14:20	58.3	58.3	58.3	96	57.2	1	6	112	0.00	29.826 
14:25	58.4	58.4	58.4	96	57.3	0	3	90	0.00	29.826 
14:30	58.6	58.6	58.6	96	57.5	0	1	90	0.00	29.825 
14:35	58.6	58.6	58.6	95	57.2	0	2	90	0.00	29.825 
14:40	58.7	58.7	58.7	95	57.3	0	2	90	0.00	29.825 
14:45	58.9	58.9	58.9	95	57.5	0	1	90	0.00	29.821 
14:50	58.7	58.7	58.7	95	57.3	1	4	90	0.00	29.821 
14:55	58.4	58.4	58.4	95	57.0	1	4	90	0.00	29.821 
15:00	58.4	58.4	58.4	95	57.0	0	1	90	0.00	29.821 
15:05	58.4	58.4	58.4	95	57.0	0	2	90	0.00	29.821 
15:10	58.6	58.6	58.6	95	57.2	0	2	90	0.01	29.821 
15:15	58.4	58.4	58.4	94	56.7	0	3	90	0.00	29.821 
15:20	58.3	58.3	58.3	94	56.6	0	2	90	0.00	29.821 
15:25	58.3	58.3	58.3	94	56.6	0	1	90	0.00	29.821 
15:30	58.4	58.4	58.4	94	56.7	0	0	---	0.00	29.820 
15:35	58.6	58.6	58.6	94	56.9	0	1	90	0.00	29.820 
15:40	58.7	58.7	58.7	94	57.0	0	1	90	0.00	29.820 
15:45	58.7	58.7	58.7	94	57.0	1	3	248	0.00	29.818 
15:50	58.7	58.7	58.7	93	56.7	0	2	248	0.00	29.818 
15:55	58.6	58.6	58.6	93	56.6	0	1	248	0.00	29.818 
16:00	58.6	58.6	58.6	93	56.6	0	2	248	0.01	29.817 
16:05	58.6	58.6	58.6	93	56.6	0	0	---	0.00	29.817 
16:10	58.7	58.7	58.7	93	56.7	0	0	---	0.00	29.817 
16:15	58.9	58.9	58.9	93	56.9	0	1	248	0.00	29.813 
16:20	58.9	58.9	58.9	93	56.9	0	2	248	0.00	29.813 
16:25	58.9	58.9	58.9	93	56.9	0	0	---	0.00	29.813 
16:30	58.9	58.9	58.9	93	56.9	0	0	---	0.00	29.809 
16:35	58.9	58.9	58.9	93	56.9	0	0	---	0.00	29.809 
16:40	58.9	58.9	58.9	93	56.9	0	0	---	0.00	29.809 
16:45	58.7	58.7	58.7	93	56.7	0	0	---	0.00	29.806 
16:50	58.7	58.7	58.7	93	56.7	0	0	---	0.01	29.806 
16:55	58.7	58.7	58.7	93	56.7	0	0	---	0.00	29.806 
17:00	58.7	58.7	58.7	93	56.7	0	0	---	0.00	29.805 
17:05	58.9	58.9	58.9	93	56.9	0	0	---	0.00	29.805 
17:10	58.9	58.9	58.9	93	56.9	0	0	---	0.00	29.805 
17:15	58.9	58.9	58.9	93	56.9	0	0	---	0.00	29.806 
17:20	58.9	58.9	58.9	93	56.9	0	0	---	0.00	29.806 
17:25	58.7	58.7	58.7	93	56.7	0	0	---	0.00	29.806 
17:30	58.7	58.7	58.7	93	56.7	0	0	---	0.00	29.806 
17:35	58.7	58.7	58.7	93	56.7	0	0	---	0.00	29.806 
17:40	58.7	58.7	58.7	93	56.7	0	0	---	0.00	29.806 
17:45	58.9	58.9	58.9	94	57.2	0	0	---	0.00	29.805 
17:50	59.0	59.0	59.0	94	57.3	0	0	---	0.00	29.805 
17:55	59.0	59.0	59.0	94	57.3	0	0	---	0.01	29.805 
18:00	59.3	59.3	59.3	94	57.6	0	0	---	0.00	29.805 
18:05	59.3	59.3	59.3	93	57.3	0	0	---	0.00	29.805 
18:10	59.3	59.3	59.3	93	57.3	0	0	---	0.00	29.805 
18:15	59.3	59.3	59.3	93	57.3	0	2	248	0.00	29.806 
18:20	59.2	59.2	59.2	93	57.2	0	2	248	0.00	29.806 
18:25	59.0	59.0	59.0	93	57.0	1	4	248	0.00	29.806 
18:30	58.7	58.7	58.7	93	56.7	0	2	248	0.00	29.806 
18:35	58.6	58.6	58.6	93	56.6	0	2	248	0.00	29.806 
18:40	58.4	58.4	58.4	93	56.4	0	1	248	0.00	29.806 
18:45	58.3	58.3	58.3	93	56.3	0	1	248	0.00	29.811 
18:50	58.4	58.4	58.4	93	56.4	0	1	248	0.00	29.811 
18:55	58.6	58.6	58.6	93	56.6	0	1	248	0.00	29.811 
19:00	58.7	58.7	58.7	93	56.7	0	1	248	0.00	29.807 
19:05	58.9	58.9	58.9	93	56.9	0	0	---	0.00	29.807 
19:10	59.2	59.2	59.2	93	57.2	0	0	---	0.00	29.807 
19:15	59.2	59.2	59.2	93	57.2	0	1	248	0.00	29.805 
19:20	59.2	59.2	59.2	92	56.9	0	1	248	0.00	29.805 
19:25	59.2	59.2	59.2	92	56.9	0	0	---	0.00	29.805 
19:30	58.9	58.9	58.9	92	56.6	0	0	---	0.00	29.803 
19:35	58.9	58.9	58.9	92	56.6	0	1	248	0.00	29.803 
19:40	58.7	58.7	58.7	92	56.4	0	1	248	0.00	29.803 
19:45	58.7	58.7	58.7	92	56.4	0	0	---	0.00	29.806 
19:50	58.7	58.7	58.7	92	56.4	0	0	---	0.01	29.806 
19:55	58.6	58.6	58.6	92	56.3	0	2	248	0.00	29.806 
20:00	58.6	58.6	58.6	92	56.3	0	1	248	0.00	29.809 
20:05	58.4	58.4	58.4	92	56.1	0	1	248	0.00	29.809 
20:10	58.3	58.3	58.3	91	55.7	0	1	248	0.00	29.809 
20:15	58.1	58.1	58.1	91	55.5	0	1	248	0.00	29.814 
20:20	58.1	58.1	58.1	91	55.5	0	0	---	0.00	29.814 
20:25	58.0	58.0	58.0	91	55.4	0	0	---	0.00	29.814 
20:30	58.0	58.0	58.0	91	55.4	0	0	---	0.00	29.822 
20:35	57.8	57.8	57.8	92	55.5	0	0	---	0.00	29.822 
20:40	57.8	57.8	57.8	92	55.5	0	0	---	0.00	29.822 
20:45	57.6	57.6	57.6	92	55.3	0	0	---	0.00	29.823 
20:50	57.6	57.6	57.6	92	55.3	0	0	---	0.00	29.823 
20:55	57.6	57.6	57.6	92	55.3	0	0	---	0.00	29.823 
21:00	57.5	57.5	57.5	92	55.2	0	0	---	0.00	29.824 
21:05	57.5	57.5	57.5	92	55.2	0	0	---	0.00	29.824 
21:10	57.5	57.5	57.5	92	55.2	0	0	---	0.00	29.824 
21:15	57.5	57.5	57.5	92	55.2	0	0	---	0.00	29.828 
21:20	57.3	57.3	57.3	92	55.0	0	0	---	0.00	29.828 
21:25	57.3	57.3	57.3	92	55.0	0	0	---	0.00	29.828 
21:30	57.3	57.3	57.3	92	55.0	0	0	---	0.00	29.833 
21:35	57.2	57.2	57.2	92	54.9	0	0	---	0.00	29.833 
21:40	57.2	57.2	57.2	92	54.9	0	0	---	0.00	29.833 
21:45	57.2	57.2	57.2	92	54.9	0	0	---	0.00	29.837 
21:50	57.2	57.2	57.2	92	54.9	0	0	---	0.00	29.837 
21:55	57.2	57.2	57.2	92	54.9	0	1	248	0.00	29.837 
22:00	57.0	57.0	57.0	92	54.7	0	2	248	0.00	29.838 
22:05	57.0	57.0	57.0	92	54.7	0	1	248	0.01	29.838 
22:10	57.0	57.0	57.0	92	54.7	0	1	248	0.00	29.838 
22:15	57.0	57.0	57.0	92	54.7	0	0	---	0.00	29.837 
22:20	56.9	56.9	56.9	92	54.6	0	0	---	0.00	29.837 
22:25	56.9	56.9	56.9	92	54.6	0	0	---	0.00	29.837 
22:30	56.9	56.9	56.9	92	54.6	0	0	---	0.00	29.840 
22:35	56.7	56.7	56.7	92	54.4	0	0	---	0.00	29.840 
22:40	56.7	56.7	56.7	92	54.4	0	1	248	0.00	29.840 
22:45	56.7	56.7	56.7	93	54.7	0	0	---	0.00	29.840 
22:50	56.6	56.6	56.6	93	54.6	0	0	---	0.00	29.840 
22:55	56.6	56.6	56.6	93	54.6	0	0	---	0.00	29.840 
23:00	56.6	56.6	56.6	93	54.6	0	1	248	0.00	29.840 
23:05	56.6	56.6	56.6	93	54.6	0	0	---	0.00	29.840 
23:10	56.5	56.5	56.5	93	54.5	0	0	---	0.00	29.840 
23:15	56.5	56.5	56.5	93	54.5	0	0	---	0.00	29.845 
23:20	56.5	56.5	56.5	93	54.5	0	0	---	0.00	29.845 
23:25	56.3	56.3	56.3	93	54.3	0	0	---	0.00	29.845 
23:30	56.3	56.3	56.3	93	54.3	0	0	---	0.00	29.844 
23:35	56.3	56.3	56.3	93	54.3	0	0	---	0.00	29.844 
23:40	56.2	56.2	56.2	93	54.2	0	0	---	0.00	29.844 
23:45	56.2	56.2	56.2	93	54.2	0	0	---	0.00	29.844 
23:50	56.2	56.2	56.2	93	54.2	0	0	---	0.00	29.844 
23:55	56.0	56.0	56.0	93	54.0	0	0	---	0.00	29.844 

CoCoRaHS
IN-AL-39
A2 Web Hosting
Creative Commons License
GoDaddy
search engine by freefind advanced

loaded 2018-11-13 23:29:54 • last modified 2010-11-18 10:43:29
Privacy PolicyDisclaimer
• wx.awcolley.com is powered by PmWiki v.2002016 •
• all content (unless otherwise noted) © 2018 A W Colley